Notice: Undefined index: language in D:\xampp\htdocs\vam\index.php on line 25
Open Air Virtual

 METAR AND TAF INFORMATION
METAR FOR KCPU
ADDS - METARS form results

(1028 UTC 16 June 2019)
Data provider http://aviationweather.gov/metar/data/
 
METAR text: KCPU 161010Z AUTO 33009KT 10SM CLR 14/10 A2987 RMK AO2 T01410102
Conditions at: KCPU (SAN ANDREAS , CA, US) observed 1010 UTC 16 June 2019
Temperature: 14.1°C (57°F)
Dewpoint: 10.2°C (50°F) [RH = 77%]
Pressure (altimeter): 29.87 inches Hg (1011.6 mb)
Winds: from the NNW (330 degrees) at 10 MPH (9 knots; 4.6 m/s)
Visibility: 10 or more miles (16+ km)
Ceiling: at least 12,000 feet AGL
Clouds: sky clear below 12,000 feet AGL
Weather: automated observation with no human augmentation;
there may or may not be significant weather present at this time

METAR text: KCPU 160950Z AUTO 33006KT 10SM CLR 14/11 A2987 RMK AO2 T01420110
Conditions at: KCPU (SAN ANDREAS , CA, US) observed 0950 UTC 16 June 2019
Temperature: 14.2°C (58°F)
Dewpoint: 11.0°C (52°F) [RH = 81%]
Pressure (altimeter): 29.87 inches Hg (1011.6 mb)
Winds: from the NNW (330 degrees) at 7 MPH (6 knots; 3.1 m/s)
Visibility: 10 or more miles (16+ km)
Ceiling: at least 12,000 feet AGL
Clouds: sky clear below 12,000 feet AGL
Weather: automated observation with no human augmentation;
there may or may not be significant weather present at this time

METAR text: KCPU 160930Z AUTO 36003KT 10SM CLR 14/11 A2987 RMK AO2 T01420110
Conditions at: KCPU (SAN ANDREAS , CA, US) observed 0930 UTC 16 June 2019
Temperature: 14.2°C (58°F)
Dewpoint: 11.0°C (52°F) [RH = 81%]
Pressure (altimeter): 29.87 inches Hg (1011.6 mb)
Winds: from the N (360 degrees) at 3 MPH (3 knots; 1.5 m/s)
Visibility: 10 or more miles (16+ km)
Ceiling: at least 12,000 feet AGL
Clouds: sky clear below 12,000 feet AGL
Weather: automated observation with no human augmentation;
there may or may not be significant weather present at this time

 AIRPORT MAP

 RUNWAY INFORMATION
Runway 13 Runway length 3603 ft Runway width 60 ft
Runway elevation 1302 ft Runway displaced threshold 0 ft Runway heading 146
Runway 31 Runway length 3603 ft Runway width 60 ft
Runway elevation 1325 ft Runway displaced threshold 0 ft Runway heading 326

 AIRPORT FREQUENCIES
Type AWOS Name AWOS 3 Frequency 118.525 MHZ
Type CNTR Name OAKLAND CN Frequency 126.85 MHZ
Type FSS Name RANCHO RDO Frequency 122.3 MHZ
Type UNIC Name CTAF/UNICO Frequency 122.8 MHZ

 AIRPORT NEAR NAVIGATION AIDS



Powered by Virtual Airlines Manager [v2.6.2]